Time;durP1;ratioP1;P1;durP2;ratioP2;P2;SDS_P1;SDS_P2;PMS_P1;PMS_P2;Temp;Humidity;BMP_temperature;BMP_pressure;BME280_temperature;BME280_humidity;BME280_pressure;Samples;Min_cycle;Max_cycle;Signal;HPM_P1;HPM_P2
2022/01/03 00:20:42;;;;;;;2.67;1.80;;;9.70;99.90;;;;;;7382093;19;20354;-91
2022/01/03 00:23:08;;;;;;;3.17;2.00;;;9.70;99.90;;;;;;7355553;19;20349;-91
2022/01/03 00:34:21;;;;;;;2.00;1.85;;;9.60;99.90;;;;;;7361559;19;20364;-89
2022/01/03 00:39:50;;;;;;;1.83;1.67;;;9.50;99.90;;;;;;7358634;19;20377;-90
2022/01/03 00:42:16;;;;;;;1.58;1.48;;;9.50;99.90;;;;;;7420573;19;20328;-91
2022/01/03 00:44:42;;;;;;;1.95;1.70;;;9.50;99.90;;;;;;7418596;19;20341;-91
2022/01/03 00:47:09;;;;;;;3.73;1.47;;;9.40;99.90;;;;;;7421012;19;20368;-93
2022/01/03 00:49:38;;;;;;;1.95;1.70;;;9.40;99.90;;;;;;7422259;19;20317;-93
2022/01/03 00:52:04;;;;;;;1.77;1.67;;;9.30;99.90;;;;;;7420482;19;20329;-93
2022/01/03 00:54:30;;;;;;;1.70;1.60;;;9.30;99.90;;;;;;7418779;19;20333;-91
2022/01/03 00:57:00;;;;;;;1.60;1.50;;;9.30;99.90;;;;;;7421608;19;20312;-92
2022/01/03 00:59:32;;;;;;;2.10;1.80;;;9.40;99.90;;;;;;7420055;19;20530;-90
2022/01/03 01:02:00;;;;;;;1.70;1.60;;;9.20;99.90;;;;;;7420423;19;20348;-90
2022/01/03 01:04:25;;;;;;;1.67;1.58;;;9.20;99.90;;;;;;7419088;19;20395;-92
2022/01/03 01:06:56;;;;;;;1.80;1.70;;;9.30;99.90;;;;;;7421915;19;20368;-93
2022/01/03 01:09:25;;;;;;;1.70;1.60;;;9.30;99.90;;;;;;7418190;19;20333;-90
2022/01/03 01:11:59;;;;;;;1.93;1.73;;;9.30;99.90;;;;;;7419467;19;20297;-92
2022/01/03 10:17:09;;;;;;;5.07;1.57;;;9.60;99.90;;;;;;7298068;19;21230;31
2022/01/03 10:23:46;;;;;;;1.43;1.27;;;9.60;99.90;;;;;;7430529;19;20351;-82
2022/01/03 10:55:34;;;;;;;1.87;1.40;;;10.40;99.90;;;;;;7401974;19;20324;-89
2022/01/03 10:58:04;;;;;;;2.95;1.67;;;10.50;99.90;;;;;;7403305;19;20273;-84
2022/01/03 11:00:37;;;;;;;5.78;2.10;;;10.50;99.90;;;;;;7413561;19;20749;-85
2022/01/03 11:03:40;;;;;;;3.97;1.85;;;10.50;99.90;;;;;;7418214;19;20305;-86
2022/01/03 11:16:02;;;;;;;5.57;2.35;;;10.20;99.90;;;;;;7352013;19;20673;-82
2022/01/03 11:18:35;;;;;;;2.95;1.38;;;10.30;99.90;;;;;;7317775;19;20332;-88
2022/01/03 11:21:33;;;;;;;4.07;1.43;;;10.30;99.90;;;;;;7369650;19;20301;-80
2022/01/03 11:23:58;;;;;;;3.50;2.50;;;10.40;99.90;;;;;;7307459;19;2007414;-82
2022/01/03 11:26:25;;;;;;;4.13;2.10;;;10.30;99.90;;;;;;7415997;19;20345;-84
2022/01/03 11:28:51;;;;;;;3.05;1.73;;;10.30;99.90;;;;;;7411902;19;20336;-89
2022/01/03 11:31:18;;;;;;;2.33;1.60;;;10.10;99.90;;;;;;7419747;19;20301;-89
2022/01/03 11:34:25;;;;;;;2.35;1.55;;;10.40;99.90;;;;;;7393659;19;20365;-84
2022/01/03 11:40:51;;;;;;;3.58;1.65;;;10.00;99.90;;;;;;7380564;19;20321;-83
2022/01/03 11:47:00;;;;;;;2.40;1.70;;;10.20;99.90;;;;;;7244606;19;2004388;-82
2022/01/03 11:49:29;;;;;;;3.17;1.70;;;10.20;99.90;;;;;;7374903;19;20323;-85
2022/01/03 11:52:12;;;;;;;4.43;1.70;;;10.30;99.90;;;;;;7286397;19;2004381;-85
2022/01/03 11:54:39;;;;;;;3.15;1.63;;;10.40;99.90;;;;;;7410149;19;20355;-85
2022/01/03 11:57:06;;;;;;;2.80;1.60;;;10.50;99.90;;;;;;7409260;19;20313;-81
2022/01/03 12:03:36;;;;;;;1.60;1.42;;;10.60;99.90;;;;;;7408723;19;20313;-80
2022/01/03 12:05:10;;;;;;;1.50;1.20;;;10.60;99.90;;;;;;7409842;19;20356;-86
2022/01/03 12:07:56;;;;;;;1.60;1.50;;;10.60;99.90;;;;;;7409577;19;20344;-88
2022/01/03 12:10:22;;;;;;;2.65;1.58;;;10.60;99.90;;;;;;7413195;19;20364;-81
2022/01/03 12:12:58;;;;;;;6.97;1.67;;;10.60;99.90;;;;;;7412274;19;20336;-87
2022/01/03 12:15:29;;;;;;;3.03;1.42;;;10.60;99.90;;;;;;7401215;19;20317;-90
2022/01/03 12:17:56;;;;;;;1.83;1.42;;;10.50;99.90;;;;;;7421886;19;20313;-86
2022/01/03 12:20:21;;;;;;;3.92;1.77;;;10.50;99.90;;;;;;7419542;19;20316;-86
2022/01/03 12:22:51;;;;;;;4.80;2.50;;;10.50;99.90;;;;;;7409098;19;20324;-83
2022/01/03 12:25:29;;;;;;;2.10;1.50;;;10.40;99.90;;;;;;7418376;19;20305;-82
2022/01/03 12:27:56;;;;;;;3.92;1.60;;;10.40;99.90;;;;;;7309323;19;2004434;-85
2022/01/03 12:30:27;;;;;;;2.53;1.70;;;10.50;99.90;;;;;;7396780;19;20349;-83
2022/01/03 12:33:12;;;;;;;2.90;1.60;;;10.50;99.90;;;;;;7417311;19;20333;-88
2022/01/03 12:35:40;;;;;;;8.55;1.80;;;10.40;99.90;;;;;;7416796;19;20399;-84
2022/01/03 12:38:06;;;;;;;1.65;1.30;;;10.40;99.90;;;;;;7415522;19;20332;-90
2022/01/03 12:40:55;;;;;;;2.58;1.55;;;10.50;99.90;;;;;;7421495;19;20304;-87
2022/01/03 12:43:51;;;;;;;1.60;1.30;;;10.50;99.90;;;;;;7279521;19;2004387;-85
2022/01/03 12:46:19;;;;;;;3.55;1.65;;;10.40;99.90;;;;;;7407295;19;20323;-87
2022/01/03 12:48:44;;;;;;;3.67;1.48;;;10.40;99.90;;;;;;7351325;19;20405;-82
2022/01/03 12:51:14;;;;;;;1.40;1.30;;;10.50;99.90;;;;;;7411292;19;20332;-90
2022/01/03 12:53:53;;;;;;;2.10;1.70;;;10.50;99.90;;;;;;7419887;19;20335;-87
2022/01/03 12:56:21;;;;;;;3.85;2.05;;;10.40;99.90;;;;;;7416206;19;20321;-84
2022/01/03 12:58:51;;;;;;;2.55;1.45;;;10.40;99.90;;;;;;7415276;19;20403;-89
2022/01/03 13:01:20;;;;;;;3.00;1.77;;;10.30;99.90;;;;;;7367981;19;20324;-84
2022/01/03 13:03:59;;;;;;;4.13;1.52;;;10.40;99.90;;;;;;7362526;19;20336;-85
2022/01/03 13:06:25;;;;;;;1.20;1.10;;;10.30;99.90;;;;;;7415370;19;20309;-82
2022/01/03 13:11:56;;;;;;;1.88;1.42;;;10.30;99.90;;;;;;7286086;19;20365;-89
2022/01/03 13:14:51;;;;;;;2.45;1.35;;;10.30;99.90;;;;;;7393239;19;20381;-85
2022/01/03 13:17:20;;;;;;;2.53;1.52;;;10.30;99.90;;;;;;7306197;19;2008105;-90
2022/01/03 13:19:45;;;;;;;1.38;1.23;;;10.40;99.90;;;;;;7400100;19;20397;-87
2022/01/03 13:22:24;;;;;;;2.92;1.50;;;10.40;99.90;;;;;;7391065;19;20313;-85
2022/01/03 13:25:02;;;;;;;1.42;1.25;;;10.30;99.90;;;;;;7359171;19;20317;-89
2022/01/03 13:27:52;;;;;;;2.20;1.50;;;10.30;99.90;;;;;;7396226;19;20351;-86
2022/01/03 13:42:48;;;;;;;2.13;1.35;;;10.30;99.90;;;;;;7339180;19;20355;-88
2022/01/03 13:51:14;;;;;;;1.90;1.48;;;10.30;99.90;;;;;;7338176;19;20387;-86
2022/01/03 13:54:08;;;;;;;2.55;1.45;;;10.30;99.90;;;;;;7428006;19;20329;-84
2022/01/03 13:59:38;;;;;;;2.10;1.40;;;10.20;99.90;;;;;;7329313;19;21516;-88
2022/01/03 14:02:06;;;;;;;1.80;1.52;;;10.40;99.90;;;;;;7420965;19;20333;-87
2022/01/03 14:04:39;;;;;;;2.75;1.60;;;10.20;99.90;;;;;;7423996;19;20312;-86
2022/01/03 14:19:33;;;;;;;1.60;1.30;;;10.40;99.90;;;;;;7386792;19;20358;-82
2022/01/03 14:22:17;;;;;;;2.83;1.70;;;10.40;99.90;;;;;;7418507;19;20338;-85
2022/01/03 14:25:12;;;;;;;2.50;1.23;;;10.40;99.90;;;;;;7423444;19;20337;-91
2022/01/03 14:28:25;;;;;;;3.10;1.45;;;10.40;99.90;;;;;;7323061;19;2004286;-89
2022/01/03 14:30:58;;;;;;;1.83;1.40;;;10.40;99.90;;;;;;7291324;19;2019850;-84
2022/01/03 14:33:26;;;;;;;4.97;1.40;;;10.30;99.90;;;;;;7263462;19;2020499;-88
2022/01/03 14:35:54;;;;;;;4.13;1.30;;;10.30;99.90;;;;;;7421857;19;20361;-89
2022/01/03 14:41:44;;;;;;;1.58;1.20;;;10.10;99.90;;;;;;7380635;19;20344;-87
2022/01/03 14:44:14;;;;;;;2.50;1.55;;;10.10;99.90;;;;;;7376897;19;20319;-90
2022/01/03 14:47:30;;;;;;;2.40;1.45;;;10.00;99.90;;;;;;7333765;19;20343;-83
2022/01/03 14:50:30;;;;;;;3.13;0.95;;;10.00;99.90;;;;;;7362464;19;20328;-89
2022/01/03 14:52:59;;;;;;;3.00;1.80;;;9.90;99.90;;;;;;7264913;19;2009161;-90
2022/01/03 15:27:36;;;;;;;2.70;2.05;;;9.70;99.90;;;;;;7369533;19;20325;-81
2022/01/03 15:31:06;;;;;;;1.05;1.00;;;9.60;99.90;;;;;;7183965;19;2024404;-79
2022/01/03 17:58:26;;;;;;;4.53;4.13;;;8.40;99.90;;;;;;7294845;19;20343;31
2022/01/03 20:53:52;;;;;;;3.10;2.60;;;7.90;99.90;;;;;;7285893;19;21609;31
2022/01/03 23:53:07;;;;;;;0.60;0.60;;;6.30;99.90;;;;;;7336833;19;20356;-88
2022/01/03 23:56:01;;;;;;;1.40;0.90;;;6.30;99.90;;;;;;7233406;19;2004408;-81
